• °C
  • Pobieranie danych...
wx


METAR EPCE 010430Z 05005KT 9999 OVC004 13/13
Q1010 RMK 133 097 8/8=

METAR EPDA 010430Z 05005KT 010V070 9999 BKN065 15/13
Q1010 RMK 145 091 7/7=

METAR EPDE 010430Z 03004KT 4000 BR BKN006 OVC011 12/12 Q1005 RMK 120
097 8/5=

METAR EPIR 010430Z 03008KT 7000 BKN005 13/12 Q1008 RMK 130 093 7/7=

METAR EPKS 010430Z 36004KT 5000 BR OVC005 12/12 Q1008 RMK 124 100
8/8=

METAR EPLK 010430Z 02004KT 340V070 6000 -DZ OVC006 12/12 Q1006 RMK
121 100 8/8=

METAR EPLY 010430Z 04004KT 9999 SCT007 BKN014 13/12 Q1007 RMK 127 098
7/3=

METAR EPMB 010430Z VRB02KT 9999 FEW140 12/11 Q1009 RMK 118 097 2/2=

METAR EPMI 010430Z 35004KT 7000 BKN005 OVC010 12/12 Q1010 RMK 115
100 8/6=

METAR EPMM 010430Z 05008KT 9999 FEW007 BKN020 BKN070 12/10 Q1006 RMK
118 090 7/1=

METAR EPNA 010430Z NIL=

METAR EPOK 010430Z 07008KT 020V090 9999 BKN012 15/13
Q1010 RMK 154 087 7/7=

METAR EPPR 010430Z 33004KT 9999 FEW014 BKN116 13/11 Q1010 RMK 129 087
5/2=

METAR EPPW 010430Z 03006KT 4000 BR OVC004 13/13 Q1008 RMK 129 100
8/8=

METAR EPRA 010430Z 04004KT 4000 -RA BR BKN005 OVC012 12/11 Q1006 RMK
116 097 8/5=

METAR EPSN 010430Z 03003KT 340V090 9999 BKN006 BKN070 12/12 Q1010
RMK 116 100 7/5=

METAR EPTM 010430Z 02006KT 3500 BR BKN005 OVC011 12/11 Q1006 RMK 118
092 8/6=



IMGW-PIB Sites